CST,Max TemperatureF,Mean TemperatureF,Min TemperatureF,Max Dew PointF,MeanDew PointF,Min DewpointF,Max Humidity, Mean Humidity, Min Humidity, Max Sea Level PressureIn, Mean Sea Level PressureIn, Min Sea Level PressureIn, Max VisibilityMiles, Mean VisibilityMiles, Min VisibilityMiles, Max Wind SpeedMPH, Mean Wind SpeedMPH, Max Gust SpeedMPH,PrecipitationIn, CloudCover, Events, WindDirDegrees
2013-1-1,14,-3,-20,12,-5,-26,100,83,72,30.16,30.02,29.87,10,7,2,13,2,16,0.00,4,Snow,218
2013-1-2,21,18,14,19,17,12,100,94,86,30.00,29.89,29.84,10,7,2,9,5,,0.00,8,Snow,189
2013-1-3,19,12,5,16,8,1,93,82,58,30.11,29.98,29.80,10,9,2,13,8,30,0.00,3,Snow,260
2013-1-4,26,12,-2,19,11,-6,100,87,74,30.07,29.94,29.81,10,10,7,13,5,16,0.00,1,,264
2013-1-5,23,8,-7,21,7,-11,100,92,84,30.05,29.95,29.87,10,10,10,6,1,,0.00,6,,325
2013-1-6,17,14,10,16,9,7,100,80,63,30.12,30.03,29.83,10,10,4,13,4,17,0.00,3,Snow,249
2013-1-7,35,25,15,25,19,10,86,77,65,29.84,29.71,29.62,10,10,1,23,10,30,0.00,4,,231
2013-1-8,30,19,8,27,20,7,100,84,69,29.90,29.78,29.61,10,9,1,14,5,18,0.00,4,Snow,171
2013-1-9,30,24,17,27,20,14,93,83,74,30.24,29.97,29.62,10,8,1,29,12,41,0.00,7,Snow,251
2013-1-10,44,30,17,30,21,14,93,62,36,30.19,29.98,29.68,10,9,5,16,8,28,0.05,2,Rain,160
2013-1-11,35,34,32,36,33,32,100,97,93,29.67,29.48,29.29,10,4,0,12,4,18,0.13,8,Fog-Rain-Snow,139
2013-1-12,33,17,1,34,10,-2,100,85,67,30.00,29.64,29.25,10,5,1,16,7,23,0.01,8,Rain-Snow,283
2013-1-13,5,0,-5,-2,-4,-9,92,83,72,30.09,30.02,29.96,10,10,10,9,5,,0.00,4,Snow,290
2013-1-14,30,14,-2,0,-3,-8,85,78,25,30.25,30.19,30.09,10,9,4,14,7,,0.00,7,Snow,248
2013-1-15,21,11,1,10,5,-2,92,72,58,30.15,29.92,29.54,10,10,5,15,6,23,0.00,4,Snow,190
2013-1-16,23,8,-7,21,4,-17,100,75,47,30.18,29.76,29.44,10,8,1,17,10,25,0.00,5,Snow,288
2013-1-17,3,-6,-16,-6,-14,-20,84,73,61,30.29,30.24,30.18,10,10,7,15,3,16,0.00,3,Snow,275
2013-1-18,17,3,-11,16,6,-15,100,88,77,30.18,29.86,29.70,10,6,0,6,1,,0.02,8,Snow,101
2013-1-19,23,9,-7,21,7,-11,100,85,66,30.11,29.73,29.54,10,5,1,22,7,30,0.00,7,Snow,272
2013-1-20,-2,-10,-18,-11,-16,-24,84,78,65,30.23,30.17,30.11,10,9,3,15,6,20,0.00,2,,271
2013-1-21,-11,-17,-23,-20,-25,-29,83,71,54,30.16,30.12,30.09,10,9,2,18,9,22,0.00,3,Snow,276
2013-1-22,-2,-16,-29,-13,-23,-36,84,71,55,30.22,30.16,30.08,10,10,10,9,2,,0.00,0,,255
2013-1-23,-2,-14,-27,-8,-18,-35,85,72,54,30.56,30.22,30.00,10,7,2,16,4,23,0.00,4,Snow,293
2013-1-24,3,-16,-36,-2,-24,-44,85,69,50,30.58,30.41,30.06,10,7,2,9,2,16,0.02,3,Snow,143
2013-1-25,10,-2,-14,3,-2,-18,92,81,67,30.23,30.00,29.83,10,7,1,14,6,18,0.01,6,Snow,290
2013-1-26,15,-5,-25,9,-8,-31,85,74,62,30.26,30.18,30.09,10,10,10,10,2,17,0.00,4,Snow,154
2013-1-27,30,16,1,25,12,-2,92,74,59,30.09,29.95,29.82,10,10,10,9,3,,0.00,3,,136
2013-1-28,32,29,26,28,26,25,100,91,80,29.84,29.79,29.70,10,9,1,9,2,,0.01,8,Snow,157
2013-1-29,28,22,17,28,24,14,100,93,80,29.75,29.63,29.52,10,7,1,10,3,16,0.09,8,Snow,299
2013-1-30,15,9,3,12,4,0,93,83,73,29.75,29.67,29.63,10,6,2,14,8,20,0.00,8,Snow,324
2013-1-31,3,-6,-18,0,-9,-24,85,76,66,30.09,29.88,29.65,10,8,2,15,8,21,0.00,5,Snow,304